sensor_id;sensor_type;location;lat;lon;timestamp;P1;durP1;ratioP1;P2;durP2;ratioP2
5674;SDS011;2860;54.284;10.158;2022-09-02T00:01:36;1.73;;;1.63;;
5674;SDS011;2860;54.284;10.158;2022-09-02T00:04:17;1.70;;;1.60;;
5674;SDS011;2860;54.284;10.158;2022-09-02T00:06:47;1.42;;;1.40;;
5674;SDS011;2860;54.284;10.158;2022-09-02T00:09:15;1.60;;;1.60;;
5674;SDS011;2860;54.284;10.158;2022-09-02T00:11:43;1.48;;;1.48;;
5674;SDS011;2860;54.284;10.158;2022-09-02T00:14:11;1.33;;;1.30;;
5674;SDS011;2860;54.284;10.158;2022-09-02T00:16:40;1.23;;;1.23;;
5674;SDS011;2860;54.284;10.158;2022-09-02T00:19:06;1.30;;;1.30;;
5674;SDS011;2860;54.284;10.158;2022-09-02T00:21:33;2.63;;;1.58;;
5674;SDS011;2860;54.284;10.158;2022-09-02T00:24:03;1.85;;;1.70;;
5674;SDS011;2860;54.284;10.158;2022-09-02T00:26:29;1.50;;;1.50;;
5674;SDS011;2860;54.284;10.158;2022-09-02T00:28:55;1.50;;;1.50;;
5674;SDS011;2860;54.284;10.158;2022-09-02T00:31:21;1.38;;;1.38;;
5674;SDS011;2860;54.284;10.158;2022-09-02T00:33:47;1.60;;;1.60;;
5674;SDS011;2860;54.284;10.158;2022-09-02T00:36:15;1.50;;;1.50;;
5674;SDS011;2860;54.284;10.158;2022-09-02T00:38:41;1.40;;;1.40;;
5674;SDS011;2860;54.284;10.158;2022-09-02T00:41:08;1.60;;;1.50;;
5674;SDS011;2860;54.284;10.158;2022-09-02T00:43:43;1.40;;;1.40;;
5674;SDS011;2860;54.284;10.158;2022-09-02T00:46:15;1.48;;;1.48;;
5674;SDS011;2860;54.284;10.158;2022-09-02T00:48:45;1.52;;;1.52;;
5674;SDS011;2860;54.284;10.158;2022-09-02T00:51:13;1.73;;;1.65;;
5674;SDS011;2860;54.284;10.158;2022-09-02T00:53:40;2.45;;;2.20;;
5674;SDS011;2860;54.284;10.158;2022-09-02T00:56:09;1.70;;;1.63;;
5674;SDS011;2860;54.284;10.158;2022-09-02T00:58:38;1.58;;;1.52;;
5674;SDS011;2860;54.284;10.158;2022-09-02T01:01:07;1.80;;;1.77;;
5674;SDS011;2860;54.284;10.158;2022-09-02T01:03:35;2.08;;;1.73;;
5674;SDS011;2860;54.284;10.158;2022-09-02T01:06:02;1.65;;;1.65;;
5674;SDS011;2860;54.284;10.158;2022-09-02T01:08:29;1.77;;;1.77;;
5674;SDS011;2860;54.284;10.158;2022-09-02T01:10:59;1.60;;;1.60;;
5674;SDS011;2860;54.284;10.158;2022-09-02T01:13:27;1.77;;;1.77;;
5674;SDS011;2860;54.284;10.158;2022-09-02T01:16:01;1.50;;;1.50;;
5674;SDS011;2860;54.284;10.158;2022-09-02T01:18:37;1.40;;;1.40;;
5674;SDS011;2860;54.284;10.158;2022-09-02T01:21:03;1.85;;;1.85;;
5674;SDS011;2860;54.284;10.158;2022-09-02T01:23:29;3.72;;;1.45;;
5674;SDS011;2860;54.284;10.158;2022-09-02T01:25:56;1.63;;;1.63;;
5674;SDS011;2860;54.284;10.158;2022-09-02T01:28:22;1.60;;;1.60;;
5674;SDS011;2860;54.284;10.158;2022-09-02T01:30:50;1.92;;;1.92;;
5674;SDS011;2860;54.284;10.158;2022-09-02T01:33:18;2.03;;;2.03;;
5674;SDS011;2860;54.284;10.158;2022-09-02T01:35:45;2.00;;;1.90;;
5674;SDS011;2860;54.284;10.158;2022-09-02T01:38:11;1.30;;;1.30;;
5674;SDS011;2860;54.284;10.158;2022-09-02T01:40:37;1.83;;;1.75;;
5674;SDS011;2860;54.284;10.158;2022-09-02T01:43:05;2.05;;;1.55;;
5674;SDS011;2860;54.284;10.158;2022-09-02T01:45:36;2.58;;;1.88;;
5674;SDS011;2860;54.284;10.158;2022-09-02T01:48:03;2.00;;;2.00;;
5674;SDS011;2860;54.284;10.158;2022-09-02T01:50:29;1.92;;;1.83;;
5674;SDS011;2860;54.284;10.158;2022-09-02T01:52:56;1.90;;;1.90;;
5674;SDS011;2860;54.284;10.158;2022-09-02T01:55:22;1.70;;;1.70;;
5674;SDS011;2860;54.284;10.158;2022-09-02T01:57:48;1.83;;;1.73;;
5674;SDS011;2860;54.284;10.158;2022-09-02T02:00:13;2.10;;;2.10;;
5674;SDS011;2860;54.284;10.158;2022-09-02T02:02:40;1.48;;;1.48;;
5674;SDS011;2860;54.284;10.158;2022-09-02T02:05:06;1.70;;;1.60;;
5674;SDS011;2860;54.284;10.158;2022-09-02T02:07:32;1.80;;;1.80;;
5674;SDS011;2860;54.284;10.158;2022-09-02T02:09:57;1.98;;;1.98;;
5674;SDS011;2860;54.284;10.158;2022-09-02T02:12:23;1.70;;;1.70;;
5674;SDS011;2860;54.284;10.158;2022-09-02T02:14:49;1.90;;;1.90;;
5674;SDS011;2860;54.284;10.158;2022-09-02T02:17:15;1.90;;;1.90;;
5674;SDS011;2860;54.284;10.158;2022-09-02T02:19:41;2.20;;;2.20;;
5674;SDS011;2860;54.284;10.158;2022-09-02T02:22:07;2.05;;;2.05;;
5674;SDS011;2860;54.284;10.158;2022-09-02T02:24:33;1.92;;;1.80;;
5674;SDS011;2860;54.284;10.158;2022-09-02T02:26:59;1.75;;;1.75;;
5674;SDS011;2860;54.284;10.158;2022-09-02T02:29:25;1.88;;;1.88;;
5674;SDS011;2860;54.284;10.158;2022-09-02T02:31:50;1.85;;;1.75;;
5674;SDS011;2860;54.284;10.158;2022-09-02T02:34:16;2.45;;;2.25;;
5674;SDS011;2860;54.284;10.158;2022-09-02T02:36:41;1.42;;;1.42;;
5674;SDS011;2860;54.284;10.158;2022-09-02T02:39:08;1.83;;;1.83;;
5674;SDS011;2860;54.284;10.158;2022-09-02T02:41:35;2.28;;;2.20;;
5674;SDS011;2860;54.284;10.158;2022-09-02T02:44:02;4.05;;;1.77;;
5674;SDS011;2860;54.284;10.158;2022-09-02T02:46:28;1.75;;;1.75;;
5674;SDS011;2860;54.284;10.158;2022-09-02T02:48:55;2.15;;;1.92;;
5674;SDS011;2860;54.284;10.158;2022-09-02T02:51:23;2.25;;;2.25;;
5674;SDS011;2860;54.284;10.158;2022-09-02T02:53:49;1.50;;;1.50;;
5674;SDS011;2860;54.284;10.158;2022-09-02T02:56:15;1.50;;;1.50;;
5674;SDS011;2860;54.284;10.158;2022-09-02T02:58:40;3.08;;;1.67;;
5674;SDS011;2860;54.284;10.158;2022-09-02T03:01:06;1.90;;;1.90;;
5674;SDS011;2860;54.284;10.158;2022-09-02T03:03:32;2.00;;;2.00;;
5674;SDS011;2860;54.284;10.158;2022-09-02T03:05:57;1.65;;;1.65;;
5674;SDS011;2860;54.284;10.158;2022-09-02T03:08:23;1.67;;;1.67;;
5674;SDS011;2860;54.284;10.158;2022-09-02T03:10:50;2.17;;;2.17;;
5674;SDS011;2860;54.284;10.158;2022-09-02T03:13:18;2.53;;;2.53;;
5674;SDS011;2860;54.284;10.158;2022-09-02T03:15:45;2.90;;;2.80;;
5674;SDS011;2860;54.284;10.158;2022-09-02T03:18:10;3.20;;;3.00;;
5674;SDS011;2860;54.284;10.158;2022-09-02T03:20:36;2.80;;;2.70;;
5674;SDS011;2860;54.284;10.158;2022-09-02T03:23:04;2.55;;;2.45;;
5674;SDS011;2860;54.284;10.158;2022-09-02T03:25:30;2.63;;;2.53;;
5674;SDS011;2860;54.284;10.158;2022-09-02T03:27:56;2.50;;;2.40;;
5674;SDS011;2860;54.284;10.158;2022-09-02T03:30:23;2.17;;;2.17;;
5674;SDS011;2860;54.284;10.158;2022-09-02T03:32:50;2.25;;;2.25;;
5674;SDS011;2860;54.284;10.158;2022-09-02T03:35:17;2.22;;;2.22;;
5674;SDS011;2860;54.284;10.158;2022-09-02T03:37:45;2.17;;;2.10;;
5674;SDS011;2860;54.284;10.158;2022-09-02T03:40:12;2.00;;;2.00;;
5674;SDS011;2860;54.284;10.158;2022-09-02T03:42:40;4.03;;;1.90;;
5674;SDS011;2860;54.284;10.158;2022-09-02T03:45:06;2.13;;;2.13;;
5674;SDS011;2860;54.284;10.158;2022-09-02T03:47:34;2.05;;;2.05;;
5674;SDS011;2860;54.284;10.158;2022-09-02T03:50:00;1.67;;;1.67;;
5674;SDS011;2860;54.284;10.158;2022-09-02T03:52:27;2.60;;;2.25;;
5674;SDS011;2860;54.284;10.158;2022-09-02T03:54:53;2.50;;;2.03;;
5674;SDS011;2860;54.284;10.158;2022-09-02T03:57:19;1.60;;;1.60;;
5674;SDS011;2860;54.284;10.158;2022-09-02T03:59:46;1.98;;;1.98;;
5674;SDS011;2860;54.284;10.158;2022-09-02T04:02:12;1.90;;;1.90;;
5674;SDS011;2860;54.284;10.158;2022-09-02T04:04:38;2.17;;;2.10;;
5674;SDS011;2860;54.284;10.158;2022-09-02T04:07:04;1.73;;;1.73;;
5674;SDS011;2860;54.284;10.158;2022-09-02T04:09:29;2.95;;;2.88;;
5674;SDS011;2860;54.284;10.158;2022-09-02T04:11:55;4.88;;;4.57;;
5674;SDS011;2860;54.284;10.158;2022-09-02T04:14:20;2.67;;;2.65;;
5674;SDS011;2860;54.284;10.158;2022-09-02T04:16:46;2.90;;;2.80;;
5674;SDS011;2860;54.284;10.158;2022-09-02T04:19:11;2.08;;;2.00;;
5674;SDS011;2860;54.284;10.158;2022-09-02T04:21:38;2.88;;;2.85;;
5674;SDS011;2860;54.284;10.158;2022-09-02T04:24:05;2.30;;;2.20;;
5674;SDS011;2860;54.284;10.158;2022-09-02T04:26:33;2.42;;;2.33;;
5674;SDS011;2860;54.284;10.158;2022-09-02T04:28:59;2.40;;;2.20;;
5674;SDS011;2860;54.284;10.158;2022-09-02T04:31:24;3.20;;;2.85;;
5674;SDS011;2860;54.284;10.158;2022-09-02T04:33:51;2.03;;;2.03;;
5674;SDS011;2860;54.284;10.158;2022-09-02T04:36:17;2.78;;;2.50;;
5674;SDS011;2860;54.284;10.158;2022-09-02T04:38:44;2.33;;;2.33;;
5674;SDS011;2860;54.284;10.158;2022-09-02T04:41:11;2.10;;;2.10;;
5674;SDS011;2860;54.284;10.158;2022-09-02T04:43:40;2.25;;;2.15;;
5674;SDS011;2860;54.284;10.158;2022-09-02T04:46:06;2.10;;;2.03;;
5674;SDS011;2860;54.284;10.158;2022-09-02T04:48:34;3.05;;;2.70;;
5674;SDS011;2860;54.284;10.158;2022-09-02T04:51:07;3.13;;;3.03;;
5674;SDS011;2860;54.284;10.158;2022-09-02T04:53:38;2.95;;;2.85;;
5674;SDS011;2860;54.284;10.158;2022-09-02T04:56:08;3.00;;;2.83;;
5674;SDS011;2860;54.284;10.158;2022-09-02T04:58:36;2.90;;;2.72;;
5674;SDS011;2860;54.284;10.158;2022-09-02T05:01:09;2.58;;;2.47;;
5674;SDS011;2860;54.284;10.158;2022-09-02T05:03:38;2.58;;;2.58;;
5674;SDS011;2860;54.284;10.158;2022-09-02T05:06:05;2.85;;;2.78;;
5674;SDS011;2860;54.284;10.158;2022-09-02T05:08:32;3.42;;;3.33;;
5674;SDS011;2860;54.284;10.158;2022-09-02T05:11:03;2.65;;;2.60;;
5674;SDS011;2860;54.284;10.158;2022-09-02T05:13:33;3.42;;;3.22;;
5674;SDS011;2860;54.284;10.158;2022-09-02T05:15:59;6.15;;;3.03;;
5674;SDS011;2860;54.284;10.158;2022-09-02T05:18:25;2.63;;;2.63;;
5674;SDS011;2860;54.284;10.158;2022-09-02T05:20:50;10.25;;;3.20;;
5674;SDS011;2860;54.284;10.158;2022-09-02T05:23:16;2.90;;;2.80;;
5674;SDS011;2860;54.284;10.158;2022-09-02T05:25:42;5.65;;;3.08;;
5674;SDS011;2860;54.284;10.158;2022-09-02T05:28:08;3.08;;;2.80;;
5674;SDS011;2860;54.284;10.158;2022-09-02T05:30:38;1.98;;;1.98;;
5674;SDS011;2860;54.284;10.158;2022-09-02T05:33:05;2.20;;;2.15;;
5674;SDS011;2860;54.284;10.158;2022-09-02T05:35:31;2.20;;;2.13;;
5674;SDS011;2860;54.284;10.158;2022-09-02T05:37:57;2.72;;;1.58;;
5674;SDS011;2860;54.284;10.158;2022-09-02T05:40:23;1.83;;;1.73;;
5674;SDS011;2860;54.284;10.158;2022-09-02T05:42:48;1.65;;;1.55;;
5674;SDS011;2860;54.284;10.158;2022-09-02T05:45:14;1.98;;;1.98;;
5674;SDS011;2860;54.284;10.158;2022-09-02T05:47:40;1.80;;;1.70;;
5674;SDS011;2860;54.284;10.158;2022-09-02T05:50:05;1.70;;;1.60;;
5674;SDS011;2860;54.284;10.158;2022-09-02T05:52:31;1.48;;;1.48;;
5674;SDS011;2860;54.284;10.158;2022-09-02T05:54:57;1.27;;;1.17;;
5674;SDS011;2860;54.284;10.158;2022-09-02T05:57:24;1.02;;;1.02;;
5674;SDS011;2860;54.284;10.158;2022-09-02T05:59:50;1.10;;;1.10;;
5674;SDS011;2860;54.284;10.158;2022-09-02T06:02:20;1.92;;;1.75;;
5674;SDS011;2860;54.284;10.158;2022-09-02T06:04:48;1.10;;;1.10;;
5674;SDS011;2860;54.284;10.158;2022-09-02T06:07:16;1.00;;;1.00;;
5674;SDS011;2860;54.284;10.158;2022-09-02T06:09:42;0.85;;;0.85;;
5674;SDS011;2860;54.284;10.158;2022-09-02T06:12:09;0.88;;;0.88;;
5674;SDS011;2860;54.284;10.158;2022-09-02T06:14:36;0.90;;;0.90;;
5674;SDS011;2860;54.284;10.158;2022-09-02T06:17:02;2.17;;;1.10;;
5674;SDS011;2860;54.284;10.158;2022-09-02T06:19:29;6.00;;;1.63;;
5674;SDS011;2860;54.284;10.158;2022-09-02T06:21:56;1.30;;;1.10;;
5674;SDS011;2860;54.284;10.158;2022-09-02T06:24:23;1.17;;;1.10;;
5674;SDS011;2860;54.284;10.158;2022-09-02T06:26:50;1.40;;;1.40;;
5674;SDS011;2860;54.284;10.158;2022-09-02T06:29:17;5.65;;;1.00;;
5674;SDS011;2860;54.284;10.158;2022-09-02T06:31:44;1.13;;;1.13;;
5674;SDS011;2860;54.284;10.158;2022-09-02T06:34:11;4.95;;;1.05;;
5674;SDS011;2860;54.284;10.158;2022-09-02T06:36:40;1.17;;;1.05;;
5674;SDS011;2860;54.284;10.158;2022-09-02T06:39:09;0.90;;;0.90;;
5674;SDS011;2860;54.284;10.158;2022-09-02T06:41:36;6.22;;;1.13;;
5674;SDS011;2860;54.284;10.158;2022-09-02T06:44:03;0.98;;;0.98;;
5674;SDS011;2860;54.284;10.158;2022-09-02T06:46:31;1.15;;;1.05;;
5674;SDS011;2860;54.284;10.158;2022-09-02T06:49:05;0.80;;;0.80;;
5674;SDS011;2860;54.284;10.158;2022-09-02T06:51:32;2.28;;;1.30;;
5674;SDS011;2860;54.284;10.158;2022-09-02T06:54:10;0.70;;;0.70;;
5674;SDS011;2860;54.284;10.158;2022-09-02T06:56:41;1.10;;;1.00;;
5674;SDS011;2860;54.284;10.158;2022-09-02T06:59:08;1.13;;;1.13;;
5674;SDS011;2860;54.284;10.158;2022-09-02T07:01:34;0.80;;;0.80;;
5674;SDS011;2860;54.284;10.158;2022-09-02T07:04:00;0.63;;;0.63;;
5674;SDS011;2860;54.284;10.158;2022-09-02T07:07:05;0.60;;;0.60;;
5674;SDS011;2860;54.284;10.158;2022-09-02T07:09:55;0.82;;;0.80;;
5674;SDS011;2860;54.284;10.158;2022-09-02T07:12:20;1.08;;;0.77;;
5674;SDS011;2860;54.284;10.158;2022-09-02T07:14:46;0.80;;;0.80;;
5674;SDS011;2860;54.284;10.158;2022-09-02T07:17:13;0.55;;;0.55;;
5674;SDS011;2860;54.284;10.158;2022-09-02T07:19:45;0.82;;;0.82;;
5674;SDS011;2860;54.284;10.158;2022-09-02T07:22:11;0.95;;;0.88;;
5674;SDS011;2860;54.284;10.158;2022-09-02T07:24:37;0.70;;;0.70;;
5674;SDS011;2860;54.284;10.158;2022-09-02T07:27:03;3.15;;;0.73;;
5674;SDS011;2860;54.284;10.158;2022-09-02T07:29:29;0.70;;;0.70;;
5674;SDS011;2860;54.284;10.158;2022-09-02T07:31:56;1.10;;;1.10;;
5674;SDS011;2860;54.284;10.158;2022-09-02T07:34:22;1.20;;;1.20;;
5674;SDS011;2860;54.284;10.158;2022-09-02T07:36:48;0.60;;;0.60;;
5674;SDS011;2860;54.284;10.158;2022-09-02T07:39:14;0.50;;;0.50;;
5674;SDS011;2860;54.284;10.158;2022-09-02T07:41:42;0.40;;;0.40;;
5674;SDS011;2860;54.284;10.158;2022-09-02T07:44:09;0.55;;;0.55;;
5674;SDS011;2860;54.284;10.158;2022-09-02T07:46:36;0.50;;;0.50;;
5674;SDS011;2860;54.284;10.158;2022-09-02T07:49:03;0.70;;;0.70;;
5674;SDS011;2860;54.284;10.158;2022-09-02T07:51:32;0.60;;;0.60;;
5674;SDS011;2860;54.284;10.158;2022-09-02T07:54:05;0.57;;;0.57;;
5674;SDS011;2860;54.284;10.158;2022-09-02T07:56:32;0.95;;;0.52;;
5674;SDS011;2860;54.284;10.158;2022-09-02T07:58:57;1.52;;;1.42;;
5674;SDS011;2860;54.284;10.158;2022-09-02T08:01:23;0.50;;;0.50;;
5674;SDS011;2860;54.284;10.158;2022-09-02T08:03:50;0.50;;;0.50;;
5674;SDS011;2860;54.284;10.158;2022-09-02T08:06:16;0.60;;;0.50;;
5674;SDS011;2860;54.284;10.158;2022-09-02T08:08:42;0.50;;;0.50;;
